< < Back
Terminal Aerodrome Forecast


Current Version              Previous Versions:   1  2  3  4  5  6  7  8  9  

Terminal Aerodrome Forecast

479
FTUS44 KOHX 301700
TAFCSV
TAF
KCSV 301720Z 3018/3118 02005KT P6SM SCT040 SCT200
     FM310800 00000KT 4SM BR SCT250=



Latest METAR

775
SAUS70 KWBC 310700 RRB
MTRCSV
METAR KCSV 310653Z AUTO 00000KT 7SM CLR 18/14 A3014 RMK AO2 SLP189
T01780139


USA.gov is the U.S. government's official web portal to all federal, state and local government web resources and services.